Time;durP1;ratioP1;P1;durP2;ratioP2;P2;SDS_P1;SDS_P2;PMS_P1;PMS_P2;Temp;Humidity;BMP_temperature;BMP_pressure;BME280_temperature;BME280_humidity;BME280_pressure;Samples;Min_cycle;Max_cycle;Signal;HPM_P1;HPM_P2
2021/04/30 00:00:54;;;;;;;4.07;2.47;;;9.10;99.70;;;;;;5029141;28;20451;-69
2021/04/30 00:03:21;;;;;;;6.53;3.70;;;9.10;99.70;;;;;;5028484;28;20475;-70
2021/04/30 00:05:47;;;;;;;6.07;2.87;;;9.00;99.70;;;;;;5029068;28;20876;-70
2021/04/30 00:08:13;;;;;;;3.87;2.20;;;9.20;99.70;;;;;;5028915;28;20456;-69
2021/04/30 00:10:40;;;;;;;4.10;2.30;;;9.10;99.70;;;;;;5029258;28;20444;-70
2021/04/30 00:13:07;;;;;;;4.30;2.90;;;9.10;99.70;;;;;;5028421;28;20472;-70
2021/04/30 00:15:35;;;;;;;3.50;1.90;;;9.10;99.70;;;;;;5029825;28;20483;-69
2021/04/30 00:18:04;;;;;;;6.17;2.50;;;8.90;99.70;;;;;;5032664;28;20955;-70
2021/04/30 00:20:31;;;;;;;5.30;2.13;;;8.90;99.70;;;;;;5032651;28;20452;-70
2021/04/30 00:22:57;;;;;;;3.80;2.53;;;8.90;99.70;;;;;;5030015;28;20910;-69
2021/04/30 00:25:23;;;;;;;3.93;2.40;;;8.90;99.70;;;;;;5032819;28;20540;-70
2021/04/30 00:27:50;;;;;;;4.10;2.10;;;9.00;99.70;;;;;;5032800;28;20455;-70
2021/04/30 00:30:16;;;;;;;2.70;1.83;;;9.00;99.70;;;;;;5033124;28;20448;-69
2021/04/30 00:32:44;;;;;;;6.10;2.47;;;9.00;99.70;;;;;;5032209;28;20870;-70
2021/04/30 00:35:10;;;;;;;3.37;2.07;;;9.00;99.70;;;;;;5032362;28;20487;-70
2021/04/30 00:37:38;;;;;;;3.90;2.10;;;9.10;99.70;;;;;;5032321;28;20453;-69
2021/04/30 00:40:06;;;;;;;4.40;2.10;;;9.10;99.70;;;;;;5032508;28;20452;-70
2021/04/30 00:42:32;;;;;;;2.80;2.20;;;9.10;99.70;;;;;;5031986;28;20472;-68
2021/04/30 00:44:59;;;;;;;4.30;2.40;;;9.20;99.70;;;;;;5032254;28;20444;-70
2021/04/30 00:47:27;;;;;;;2.90;2.03;;;9.10;99.70;;;;;;5032336;28;20450;-69
2021/04/30 00:49:54;;;;;;;3.90;2.30;;;9.00;99.70;;;;;;5032254;28;20456;-69
2021/04/30 00:52:20;;;;;;;3.70;2.27;;;9.00;99.70;;;;;;5032464;28;21014;-69
2021/04/30 00:54:47;;;;;;;4.97;2.70;;;9.00;99.70;;;;;;5031548;28;20488;-69
2021/04/30 00:57:13;;;;;;;4.03;2.30;;;8.90;99.70;;;;;;5031885;28;20453;-70
2021/04/30 00:59:40;;;;;;;4.43;2.17;;;9.00;99.70;;;;;;5032120;28;20452;-69
2021/04/30 01:02:06;;;;;;;3.60;2.23;;;9.00;99.70;;;;;;5032013;28;20468;-70
2021/04/30 01:04:33;;;;;;;3.53;2.30;;;9.00;99.70;;;;;;5031341;28;20440;-70
2021/04/30 01:07:00;;;;;;;3.97;2.53;;;9.00;99.70;;;;;;5031771;28;20445;-69
2021/04/30 01:09:26;;;;;;;4.23;2.10;;;8.90;99.70;;;;;;5031809;28;20456;-70
2021/04/30 01:11:52;;;;;;;3.30;2.27;;;9.00;99.70;;;;;;5031911;28;20498;-70
2021/04/30 01:14:18;;;;;;;3.00;2.07;;;9.00;99.70;;;;;;5031199;28;21012;-69
2021/04/30 01:16:45;;;;;;;3.73;2.30;;;8.80;99.70;;;;;;5031684;28;20456;-70
2021/04/30 01:19:19;;;;;;;5.50;2.80;;;8.80;99.70;;;;;;5031603;28;20452;-70
2021/04/30 01:21:46;;;;;;;5.07;2.60;;;8.90;99.70;;;;;;5029796;28;20448;-69
2021/04/30 01:24:13;;;;;;;4.83;2.10;;;8.80;99.70;;;;;;5031084;28;20503;-70
2021/04/30 01:26:43;;;;;;;5.40;2.80;;;8.80;99.70;;;;;;5031058;28;20970;-69
2021/04/30 01:29:09;;;;;;;5.03;2.37;;;8.90;99.70;;;;;;5031790;28;20440;-70
2021/04/30 01:31:36;;;;;;;6.20;2.70;;;9.00;99.70;;;;;;5031346;28;20445;-69
2021/04/30 01:34:02;;;;;;;6.50;3.00;;;9.10;99.70;;;;;;5030887;28;20484;-70
2021/04/30 01:36:30;;;;;;;4.53;2.77;;;9.00;99.70;;;;;;5031937;28;20494;-70
2021/04/30 01:38:56;;;;;;;4.43;2.40;;;9.10;99.70;;;;;;5032458;28;20448;-69
2021/04/30 01:41:24;;;;;;;6.83;2.23;;;9.00;99.70;;;;;;5032602;28;20441;-70
2021/04/30 01:43:51;;;;;;;4.17;2.47;;;8.80;99.70;;;;;;5031514;28;20464;-69
2021/04/30 01:46:17;;;;;;;6.20;2.93;;;8.90;99.70;;;;;;5032013;28;20460;-70
2021/04/30 01:48:44;;;;;;;4.10;2.70;;;8.80;99.70;;;;;;5032335;28;20440;-69
2021/04/30 01:51:10;;;;;;;3.47;2.33;;;8.80;99.70;;;;;;5032137;28;20445;-69
2021/04/30 01:53:37;;;;;;;5.33;2.33;;;8.90;99.70;;;;;;5031604;28;20971;-69
2021/04/30 01:56:05;;;;;;;4.63;2.87;;;8.80;99.70;;;;;;5031810;28;20480;-70
2021/04/30 01:58:33;;;;;;;5.20;2.53;;;8.80;99.70;;;;;;5031022;28;20453;-70
2021/04/30 02:00:59;;;;;;;5.70;3.10;;;8.70;99.70;;;;;;5030945;28;20453;-69
2021/04/30 02:03:26;;;;;;;4.70;2.80;;;8.70;99.70;;;;;;5030712;28;20469;-70
2021/04/30 02:05:53;;;;;;;3.50;2.30;;;8.80;99.70;;;;;;5030921;28;20447;-69
2021/04/30 02:08:19;;;;;;;4.00;2.53;;;8.70;99.70;;;;;;5030678;28;20455;-69
2021/04/30 02:10:47;;;;;;;6.50;2.47;;;8.70;99.70;;;;;;5030811;28;20510;-69
2021/04/30 02:13:15;;;;;;;5.30;2.37;;;8.80;99.70;;;;;;5029927;28;20472;-69
2021/04/30 02:15:44;;;;;;;5.77;2.90;;;9.00;99.70;;;;;;5030736;28;20484;-70
2021/04/30 02:18:11;;;;;;;3.77;1.97;;;9.00;99.70;;;;;;5030458;28;20463;-70
2021/04/30 02:20:37;;;;;;;6.23;2.83;;;8.90;99.70;;;;;;5030204;28;20825;-69
2021/04/30 02:23:04;;;;;;;5.13;2.30;;;8.80;99.70;;;;;;5028043;28;21193;-70
2021/04/30 02:25:30;;;;;;;5.47;3.00;;;8.70;99.70;;;;;;5030330;28;20441;-70
2021/04/30 02:27:58;;;;;;;5.50;2.40;;;8.60;99.70;;;;;;5030154;28;20464;-69
2021/04/30 02:30:25;;;;;;;4.97;2.40;;;8.60;99.70;;;;;;5030306;28;20456;-69
2021/04/30 02:32:54;;;;;;;4.33;2.60;;;8.50;99.70;;;;;;5029696;28;20479;-70
2021/04/30 02:35:24;;;;;;;6.60;2.30;;;8.50;99.70;;;;;;5030204;28;20491;-69
2021/04/30 02:37:51;;;;;;;2.93;2.17;;;8.60;99.70;;;;;;5029405;28;20502;-70
2021/04/30 02:40:20;;;;;;;4.30;2.17;;;8.50;99.70;;;;;;5030803;28;20450;-69
2021/04/30 02:42:47;;;;;;;4.90;2.60;;;8.60;99.70;;;;;;5030737;28;20468;-70
2021/04/30 02:45:16;;;;;;;5.83;2.80;;;8.60;99.70;;;;;;5031024;28;20456;-69
2021/04/30 02:47:46;;;;;;;6.83;3.00;;;8.60;99.70;;;;;;5030938;28;20449;-69
2021/04/30 02:50:15;;;;;;;4.37;2.23;;;8.50;99.70;;;;;;5030947;28;20487;-69
2021/04/30 02:52:41;;;;;;;5.13;2.70;;;8.50;99.70;;;;;;5030228;28;20907;-69
2021/04/30 02:55:08;;;;;;;4.30;2.40;;;8.40;99.70;;;;;;5029716;28;20488;-69
2021/04/30 02:57:35;;;;;;;9.53;3.20;;;8.40;99.70;;;;;;5029562;28;20506;-69
2021/04/30 03:00:01;;;;;;;3.50;2.57;;;8.40;99.70;;;;;;5029888;28;20452;-70
2021/04/30 03:02:27;;;;;;;6.50;2.83;;;8.40;99.70;;;;;;5030921;28;20570;-69
2021/04/30 03:04:53;;;;;;;5.20;2.53;;;8.40;99.70;;;;;;5029923;28;20444;-67
2021/04/30 03:07:20;;;;;;;6.90;2.87;;;8.40;99.70;;;;;;5030675;28;20441;-69
2021/04/30 03:09:47;;;;;;;5.20;2.50;;;8.50;99.70;;;;;;5031056;28;20475;-68
2021/04/30 03:12:13;;;;;;;9.03;2.40;;;8.50;99.70;;;;;;5030579;28;20465;-68
2021/04/30 03:14:39;;;;;;;5.10;2.23;;;8.40;99.70;;;;;;5029855;28;21019;-68
2021/04/30 03:17:05;;;;;;;6.00;3.53;;;8.30;99.70;;;;;;5030296;28;20482;-68
2021/04/30 03:19:31;;;;;;;4.33;2.60;;;8.50;99.70;;;;;;5030769;28;20502;-68
2021/04/30 03:24:34;;;;;;;4.27;2.90;;;8.40;99.70;;;;;;5056093;22;20519;-70
2021/04/30 03:27:00;;;;;;;4.90;2.90;;;8.40;99.70;;;;;;5036211;28;20445;-70
2021/04/30 03:29:26;;;;;;;4.40;2.50;;;8.40;99.70;;;;;;5035080;28;20455;-70
2021/04/30 03:31:52;;;;;;;4.33;2.43;;;8.40;99.70;;;;;;5036809;28;20448;-71
2021/04/30 03:34:18;;;;;;;4.70;2.93;;;8.40;99.70;;;;;;5035754;28;20488;-70
2021/04/30 03:36:45;;;;;;;7.90;3.10;;;8.40;99.70;;;;;;5034734;28;20722;-70
2021/04/30 03:39:11;;;;;;;3.20;2.20;;;8.40;99.70;;;;;;5035313;28;20867;-71
2021/04/30 03:41:38;;;;;;;6.40;3.17;;;8.30;99.70;;;;;;5035677;28;20535;-70
2021/04/30 03:44:05;;;;;;;4.77;2.40;;;8.40;99.70;;;;;;5036448;28;20479;-71
2021/04/30 03:46:31;;;;;;;7.70;4.17;;;8.30;99.70;;;;;;5036657;28;20456;-70
2021/04/30 03:48:57;;;;;;;5.37;2.70;;;8.30;99.70;;;;;;5037612;28;20448;-70
2021/04/30 03:51:24;;;;;;;5.57;3.00;;;8.20;99.70;;;;;;5041918;28;20448;-71
2021/04/30 03:53:50;;;;;;;4.60;2.73;;;8.20;99.70;;;;;;5040360;28;20475;-70
2021/04/30 03:56:16;;;;;;;3.70;2.37;;;8.30;99.70;;;;;;5041281;28;20437;-71
2021/04/30 03:58:43;;;;;;;7.23;3.03;;;8.30;99.70;;;;;;5041355;28;20482;-70
2021/04/30 04:01:09;;;;;;;6.23;2.70;;;8.20;99.70;;;;;;5041419;28;20451;-70
2021/04/30 04:03:36;;;;;;;4.00;2.90;;;8.20;99.70;;;;;;5040861;28;20911;-70
2021/04/30 04:06:02;;;;;;;4.27;2.03;;;8.20;99.70;;;;;;5040259;28;20452;-71
2021/04/30 04:08:29;;;;;;;6.43;2.70;;;8.10;99.70;;;;;;5040933;28;20448;-70
2021/04/30 04:10:55;;;;;;;4.33;2.83;;;8.10;99.70;;;;;;5040621;28;20452;-70
2021/04/30 04:13:23;;;;;;;5.97;3.00;;;8.30;99.70;;;;;;5039982;28;20859;-70
2021/04/30 04:15:51;;;;;;;5.20;3.30;;;8.40;99.70;;;;;;5040334;28;20476;-70
2021/04/30 04:18:18;;;;;;;6.10;2.33;;;8.30;99.70;;;;;;5040559;28;20445;-70
2021/04/30 04:20:45;;;;;;;4.60;3.10;;;8.30;99.70;;;;;;5040641;28;20827;-71
2021/04/30 04:23:12;;;;;;;8.00;3.00;;;8.20;99.70;;;;;;5038013;28;20494;-70
2021/04/30 04:25:39;;;;;;;8.60;3.53;;;8.10;99.70;;;;;;5040573;28;20444;-70
2021/04/30 04:28:06;;;;;;;7.73;3.20;;;8.10;99.70;;;;;;5040796;28;20451;-70
2021/04/30 04:30:33;;;;;;;6.63;3.20;;;8.30;99.70;;;;;;5040004;28;20828;-70
2021/04/30 04:33:00;;;;;;;9.47;2.87;;;8.20;99.70;;;;;;5039494;28;20489;-70
2021/04/30 04:35:26;;;;;;;6.17;2.97;;;8.30;99.70;;;;;;5041052;28;20476;-70
2021/04/30 04:37:52;;;;;;;5.37;3.40;;;8.20;99.70;;;;;;5039678;28;20445;-71
2021/04/30 04:40:19;;;;;;;5.80;2.63;;;8.20;99.70;;;;;;5040502;28;20510;-70
2021/04/30 04:42:46;;;;;;;5.50;2.60;;;8.20;99.70;;;;;;5039539;28;20766;-70
2021/04/30 04:45:14;;;;;;;6.90;3.20;;;8.20;99.70;;;;;;5040237;28;20527;-70
2021/04/30 04:47:40;;;;;;;7.27;2.73;;;8.20;99.70;;;;;;5039744;28;20452;-71
2021/04/30 04:50:09;;;;;;;5.43;3.17;;;8.30;99.70;;;;;;5040180;28;20834;-70
2021/04/30 04:52:35;;;;;;;5.80;3.00;;;8.30;99.70;;;;;;5039287;28;20471;-70
2021/04/30 04:55:01;;;;;;;6.17;3.07;;;8.20;99.70;;;;;;5039985;28;20484;-71
2021/04/30 04:57:28;;;;;;;6.80;2.80;;;8.30;99.70;;;;;;5039803;28;20448;-70
2021/04/30 04:59:54;;;;;;;8.70;3.20;;;8.40;99.70;;;;;;5039946;28;20452;-70
2021/04/30 05:02:20;;;;;;;7.93;2.50;;;8.40;99.70;;;;;;5040816;28;20445;-71
2021/04/30 05:04:46;;;;;;;9.60;3.03;;;8.40;99.70;;;;;;5039967;28;20455;-71
2021/04/30 05:07:13;;;;;;;4.37;2.40;;;8.40;99.70;;;;;;5039459;28;20452;-70
2021/04/30 05:09:40;;;;;;;6.40;2.80;;;8.30;99.70;;;;;;5040241;28;20804;-70
2021/04/30 05:12:07;;;;;;;3.97;2.40;;;8.40;99.70;;;;;;5039989;28;20457;-70
2021/04/30 05:14:33;;;;;;;4.77;2.80;;;8.40;99.70;;;;;;5039498;28;20484;-70
2021/04/30 05:16:59;;;;;;;5.60;2.60;;;8.40;99.70;;;;;;5039840;28;20449;-70
2021/04/30 05:19:26;;;;;;;6.97;2.80;;;8.40;99.70;;;;;;5039131;28;20445;-70
2021/04/30 05:21:52;;;;;;;7.17;2.90;;;8.30;99.70;;;;;;5037811;28;20460;-70
2021/04/30 05:24:19;;;;;;;7.30;2.30;;;8.40;99.70;;;;;;5039403;28;20487;-71
2021/04/30 05:26:45;;;;;;;5.03;3.10;;;8.50;99.70;;;;;;5039273;28;20461;-70
2021/04/30 05:29:14;;;;;;;4.53;2.90;;;8.40;99.70;;;;;;5036047;28;20463;-71
2021/04/30 05:31:40;;;;;;;6.23;2.90;;;8.50;99.70;;;;;;5038975;28;21015;-71
2021/04/30 05:34:07;;;;;;;4.90;2.43;;;8.60;99.70;;;;;;5039372;28;20475;-71
2021/04/30 05:36:33;;;;;;;5.40;2.67;;;8.50;99.70;;;;;;5040335;28;20773;-70
2021/04/30 05:38:59;;;;;;;9.90;3.97;;;8.40;99.70;;;;;;5040413;28;20813;-70
2021/04/30 05:41:26;;;;;;;6.53;2.90;;;8.40;99.70;;;;;;5038678;28;20436;-70
2021/04/30 05:43:53;;;;;;;4.30;3.13;;;8.70;99.70;;;;;;5042383;28;20475;-70
2021/04/30 05:46:19;;;;;;;8.50;3.23;;;8.50;99.70;;;;;;5038850;28;20447;-71
2021/04/30 05:48:45;;;;;;;5.10;2.80;;;8.50;99.70;;;;;;5039835;28;20448;-70
2021/04/30 05:51:12;;;;;;;4.67;2.60;;;8.40;99.70;;;;;;5039590;28;20535;-71
2021/04/30 05:53:38;;;;;;;5.03;2.67;;;8.40;99.70;;;;;;5039406;28;20468;-71
2021/04/30 05:56:05;;;;;;;5.53;2.80;;;8.60;99.70;;;;;;5042044;28;20477;-69
2021/04/30 05:58:32;;;;;;;5.50;2.80;;;8.70;99.70;;;;;;5041092;28;20516;-71
2021/04/30 06:00:58;;;;;;;6.43;2.63;;;8.80;99.70;;;;;;5042742;28;20441;-72
2021/04/30 06:03:24;;;;;;;9.20;3.60;;;8.90;99.70;;;;;;5040813;28;20469;-71
2021/04/30 06:05:50;;;;;;;8.73;3.20;;;8.80;99.50;;;;;;5039609;28;20495;-69
2021/04/30 06:08:16;;;;;;;5.93;2.90;;;8.90;99.70;;;;;;5035088;28;20433;-70
2021/04/30 06:10:43;;;;;;;6.10;2.63;;;9.00;99.00;;;;;;5036790;28;20444;-71
2021/04/30 06:13:09;;;;;;;6.03;3.60;;;9.00;99.70;;;;;;5035297;28;20484;-71
2021/04/30 06:15:36;;;;;;;7.80;2.70;;;9.00;99.50;;;;;;5038919;28;20538;-71
2021/04/30 06:18:02;;;;;;;6.87;3.37;;;8.90;99.20;;;;;;5038237;28;20447;-71
2021/04/30 06:20:28;;;;;;;4.97;2.80;;;9.10;99.70;;;;;;5038622;28;20441;-71
2021/04/30 06:22:55;;;;;;;5.13;2.80;;;9.10;99.40;;;;;;5036403;28;20476;-71
2021/04/30 06:25:21;;;;;;;7.37;2.90;;;9.30;99.70;;;;;;5040493;28;20460;-71
2021/04/30 06:27:48;;;;;;;5.00;2.73;;;9.40;99.50;;;;;;5037910;28;20449;-72
2021/04/30 06:30:15;;;;;;;4.53;2.87;;;9.50;98.30;;;;;;5036914;28;20808;-71
2021/04/30 06:32:43;;;;;;;4.97;3.17;;;9.40;98.00;;;;;;5038513;28;20464;-72
2021/04/30 06:35:10;;;;;;;8.67;2.87;;;9.30;98.00;;;;;;5047599;28;20480;-71
2021/04/30 06:37:38;;;;;;;10.30;2.50;;;9.30;97.30;;;;;;5037474;28;20468;-71
2021/04/30 06:40:05;;;;;;;7.47;2.80;;;9.20;98.00;;;;;;5037144;28;20445;-71
2021/04/30 06:42:31;;;;;;;6.73;3.17;;;9.30;99.40;;;;;;5036793;28;20522;-69
2021/04/30 06:44:57;;;;;;;5.33;2.70;;;9.40;98.80;;;;;;5036713;28;20506;-71
2021/04/30 06:47:24;;;;;;;5.87;3.07;;;9.40;98.20;;;;;;5024722;28;20845;-71
2021/04/30 06:49:51;;;;;;;6.20;3.03;;;9.30;97.90;;;;;;5035484;28;20655;-71
2021/04/30 06:52:17;;;;;;;5.20;2.77;;;9.30;99.10;;;;;;5036103;28;20815;-72
2021/04/30 06:54:43;;;;;;;8.87;2.53;;;9.20;98.30;;;;;;5037381;28;20484;-71
2021/04/30 06:57:10;;;;;;;5.90;3.00;;;9.20;98.40;;;;;;5036816;28;20457;-72
2021/04/30 06:59:36;;;;;;;7.77;3.60;;;9.20;98.40;;;;;;5038685;28;20459;-71
2021/04/30 07:02:03;;;;;;;6.50;2.37;;;9.10;98.70;;;;;;5037670;28;20449;-71
2021/04/30 07:04:30;;;;;;;5.00;3.07;;;9.00;99.00;;;;;;5037249;28;20990;-72
2021/04/30 07:06:57;;;;;;;4.97;3.20;;;9.00;99.40;;;;;;5037149;28;20441;-71
2021/04/30 07:09:23;;;;;;;8.43;3.50;;;8.80;99.70;;;;;;5038593;28;20448;-71
2021/04/30 07:11:49;;;;;;;8.57;2.77;;;8.90;99.70;;;;;;5037478;28;20456;-71
2021/04/30 07:14:15;;;;;;;7.63;3.03;;;8.90;99.70;;;;;;5037206;28;20789;-71
2021/04/30 07:16:41;;;;;;;5.40;3.47;;;9.00;99.70;;;;;;5037259;28;20449;-72
2021/04/30 07:19:07;;;;;;;5.27;3.10;;;9.10;99.70;;;;;;5047773;28;20455;-71
2021/04/30 07:21:34;;;;;;;5.47;2.83;;;9.10;99.70;;;;;;5044816;28;20453;-72
2021/04/30 07:24:01;;;;;;;4.83;2.63;;;9.00;99.20;;;;;;5036424;28;20476;-71
2021/04/30 07:26:27;;;;;;;7.50;3.60;;;8.90;99.70;;;;;;5036737;28;20444;-71
2021/04/30 07:28:53;;;;;;;7.80;3.00;;;9.00;99.70;;;;;;5037410;28;20445;-71
2021/04/30 07:31:19;;;;;;;8.33;3.17;;;9.00;99.70;;;;;;5036899;28;20445;-72
2021/04/30 07:33:46;;;;;;;5.27;3.13;;;9.10;99.70;;;;;;5035903;28;20464;-71
2021/04/30 07:36:14;;;;;;;9.50;3.50;;;9.10;99.70;;;;;;5036251;28;20547;-71
2021/04/30 07:38:40;;;;;;;5.17;3.30;;;9.10;99.70;;;;;;5035473;28;20455;-71
2021/04/30 07:41:07;;;;;;;8.63;3.33;;;9.20;99.70;;;;;;5033379;28;20465;-71
2021/04/30 07:43:34;;;;;;;6.33;3.03;;;9.20;99.70;;;;;;5023437;28;20503;-72
2021/04/30 07:46:00;;;;;;;6.13;2.50;;;9.20;99.50;;;;;;5035922;28;20445;-71
2021/04/30 07:48:27;;;;;;;7.30;2.90;;;9.30;99.70;;;;;;5035934;28;20444;-71
2021/04/30 07:50:55;;;;;;;6.50;3.33;;;9.30;99.70;;;;;;5036618;28;20460;-72
2021/04/30 07:53:21;;;;;;;6.17;3.20;;;9.40;99.70;;;;;;5034317;28;21051;-72
2021/04/30 07:55:47;;;;;;;3.10;2.30;;;9.10;99.70;;;;;;5043796;28;20974;-71
2021/04/30 07:58:14;;;;;;;4.90;3.20;;;9.10;99.70;;;;;;5052708;28;20456;-71
2021/04/30 08:00:41;;;;;;;8.67;3.57;;;9.10;99.70;;;;;;5041313;28;20453;-72
2021/04/30 08:03:09;;;;;;;6.57;3.37;;;9.40;99.70;;;;;;5036532;28;20900;-71
2021/04/30 08:05:35;;;;;;;6.27;3.20;;;9.50;99.70;;;;;;5036433;28;20441;-71
2021/04/30 08:08:03;;;;;;;6.63;3.30;;;9.40;99.70;;;;;;5035551;28;20486;-71
2021/04/30 08:10:29;;;;;;;5.17;2.20;;;9.40;99.70;;;;;;5036632;28;21042;-71
2021/04/30 08:12:56;;;;;;;4.17;2.83;;;9.40;99.70;;;;;;5034379;28;20496;-72
2021/04/30 08:15:23;;;;;;;6.10;2.90;;;9.50;99.70;;;;;;5037818;28;20503;-72
2021/04/30 08:17:49;;;;;;;7.57;2.80;;;9.60;99.70;;;;;;5036597;28;20974;-71
2021/04/30 08:20:15;;;;;;;6.20;3.03;;;9.60;99.70;;;;;;5035880;28;20449;-71
2021/04/30 08:22:42;;;;;;;5.20;2.87;;;9.50;99.70;;;;;;5041023;28;20481;-71
2021/04/30 08:25:09;;;;;;;7.33;3.60;;;9.40;99.70;;;;;;5040459;28;20445;-71
2021/04/30 08:27:36;;;;;;;8.10;3.33;;;9.40;99.70;;;;;;5037268;28;20437;-71
2021/04/30 08:30:04;;;;;;;6.77;3.33;;;9.40;99.70;;;;;;5037567;28;20453;-71
2021/04/30 08:32:31;;;;;;;8.73;3.80;;;9.40;99.70;;;;;;5036992;28;20955;-71
2021/04/30 08:34:57;;;;;;;7.90;3.40;;;9.40;99.70;;;;;;5036479;28;20477;-71
2021/04/30 08:37:24;;;;;;;8.23;3.67;;;9.20;99.70;;;;;;5038905;28;20544;-70
2021/04/30 08:39:52;;;;;;;5.77;3.03;;;9.20;99.70;;;;;;5042069;28;20456;-71
2021/04/30 08:42:20;;;;;;;6.10;3.20;;;9.40;99.70;;;;;;5035582;28;20452;-71
2021/04/30 08:44:46;;;;;;;7.80;4.07;;;9.30;99.70;;;;;;5041218;28;20947;-71
2021/04/30 08:47:16;;;;;;;7.67;3.10;;;9.40;99.70;;;;;;5042317;28;20511;-72
2021/04/30 08:49:44;;;;;;;5.73;2.90;;;9.50;99.70;;;;;;5040624;28;20467;-71
2021/04/30 08:52:11;;;;;;;6.37;3.00;;;9.50;99.70;;;;;;5044569;28;20456;-72
2021/04/30 08:54:37;;;;;;;8.33;3.00;;;9.70;99.70;;;;;;5039438;28;20466;-71
2021/04/30 08:57:06;;;;;;;6.83;3.10;;;9.90;99.70;;;;;;5039215;28;20453;-71
2021/04/30 08:59:33;;;;;;;4.37;2.77;;;10.00;99.70;;;;;;5040354;28;20479;-72
2021/04/30 09:01:59;;;;;;;5.67;2.50;;;10.10;99.70;;;;;;5040662;28;20452;-71
2021/04/30 09:04:26;;;;;;;6.70;2.83;;;10.20;99.70;;;;;;5039585;28;20484;-71
2021/04/30 09:06:53;;;;;;;5.10;3.07;;;10.30;99.70;;;;;;5040430;28;20452;-72
2021/04/30 09:09:21;;;;;;;9.23;3.97;;;10.40;99.50;;;;;;5044757;28;20448;-71
2021/04/30 09:11:51;;;;;;;8.10;3.83;;;10.40;99.70;;;;;;5041978;28;20448;-71
2021/04/30 09:14:29;;;;;;;7.80;3.13;;;10.40;99.70;;;;;;5039390;28;20939;-72
2021/04/30 09:17:00;;;;;;;8.87;3.70;;;10.30;99.70;;;;;;5039602;28;20535;-71
2021/04/30 09:19:31;;;;;;;7.57;3.40;;;10.20;99.70;;;;;;5038959;28;20445;-71
2021/04/30 09:21:59;;;;;;;7.87;3.67;;;10.30;99.70;;;;;;5023789;28;20496;-71
2021/04/30 09:24:26;;;;;;;9.60;3.87;;;10.40;99.70;;;;;;5035121;28;20483;-72
2021/04/30 09:26:52;;;;;;;8.23;3.60;;;10.30;99.70;;;;;;5044648;28;20515;-71
2021/04/30 09:29:20;;;;;;;11.60;3.57;;;10.10;99.70;;;;;;5039077;28;20620;-71
2021/04/30 09:31:49;;;;;;;6.70;3.50;;;9.90;99.70;;;;;;5038226;28;20818;-71
2021/04/30 09:34:23;;;;;;;8.80;3.93;;;9.70;99.70;;;;;;5039793;28;20484;-71
2021/04/30 09:37:02;;;;;;;7.50;3.27;;;9.90;99.70;;;;;;5019666;28;20437;-71
2021/04/30 09:39:29;;;;;;;8.30;2.90;;;9.60;99.70;;;;;;5018995;28;20454;-71
2021/04/30 09:42:06;;;;;;;4.70;2.70;;;9.60;99.70;;;;;;5018437;28;20456;-71
2021/04/30 09:44:34;;;;;;;5.60;2.93;;;9.50;99.70;;;;;;5024290;28;20496;-70
2021/04/30 09:47:12;;;;;;;8.07;3.50;;;9.60;99.70;;;;;;5051848;28;20444;-71
2021/04/30 09:49:38;;;;;;;7.30;3.27;;;9.60;99.70;;;;;;5037342;28;20440;-70
2021/04/30 09:52:07;;;;;;;7.90;3.47;;;9.60;99.70;;;;;;5038690;28;20444;-71
2021/04/30 09:54:34;;;;;;;5.47;3.00;;;9.60;99.70;;;;;;5043045;28;20468;-71
2021/04/30 09:57:06;;;;;;;10.13;2.93;;;9.60;99.70;;;;;;5058895;28;20447;-71
2021/04/30 09:59:34;;;;;;;5.30;3.20;;;9.50;99.70;;;;;;5049733;28;20441;-71
2021/04/30 10:02:03;;;;;;;10.83;3.90;;;9.70;99.70;;;;;;5037105;28;20452;-71
2021/04/30 10:04:32;;;;;;;6.33;2.60;;;9.70;99.70;;;;;;5033557;28;20486;-72
2021/04/30 10:06:58;;;;;;;6.10;3.70;;;9.60;99.70;;;;;;5038568;28;20449;-72
2021/04/30 10:09:27;;;;;;;6.07;2.80;;;9.60;99.70;;;;;;5038999;28;20452;-72
2021/04/30 10:11:54;;;;;;;7.90;3.70;;;9.70;99.70;;;;;;5036778;28;20429;-71
2021/04/30 10:14:20;;;;;;;8.10;3.20;;;9.60;99.70;;;;;;5026531;28;20471;-72
2021/04/30 10:16:47;;;;;;;6.43;3.23;;;9.60;99.70;;;;;;5037901;28;20493;-72
2021/04/30 10:19:13;;;;;;;5.40;3.07;;;9.60;99.70;;;;;;5037958;28;20838;-72
2021/04/30 10:21:41;;;;;;;6.43;2.87;;;9.70;99.70;;;;;;5037906;28;20444;-72
2021/04/30 10:24:14;;;;;;;9.73;3.70;;;9.60;99.70;;;;;;5038070;28;20495;-71
2021/04/30 10:26:41;;;;;;;10.23;3.50;;;9.80;99.70;;;;;;5032997;28;20571;-71
2021/04/30 10:29:11;;;;;;;5.03;2.83;;;9.70;99.70;;;;;;5037593;28;20474;-72
2021/04/30 10:31:42;;;;;;;6.00;3.07;;;9.70;99.70;;;;;;5038514;28;20449;-72
2021/04/30 10:34:17;;;;;;;5.60;3.20;;;9.70;99.70;;;;;;5038746;28;20473;-72
2021/04/30 10:36:49;;;;;;;4.80;2.90;;;9.60;99.70;;;;;;5038666;28;20483;-72
2021/04/30 10:39:27;;;;;;;9.00;3.40;;;9.60;99.70;;;;;;5039641;28;20942;-73
2021/04/30 10:41:56;;;;;;;6.70;3.07;;;9.40;99.70;;;;;;5038490;28;20436;-72
2021/04/30 10:44:25;;;;;;;8.20;3.70;;;9.30;99.70;;;;;;5038191;28;20476;-73
2021/04/30 10:47:14;;;;;;;7.67;3.47;;;9.30;99.70;;;;;;5039699;28;20945;-72
2021/04/30 10:49:40;;;;;;;6.67;4.10;;;9.00;99.70;;;;;;5038707;28;20456;-72
2021/04/30 10:52:19;;;;;;;5.70;2.90;;;8.80;99.70;;;;;;5038729;28;20441;-72
2021/04/30 10:54:47;;;;;;;6.80;3.40;;;8.60;99.70;;;;;;5038373;28;20449;-72
2021/04/30 10:57:16;;;;;;;6.67;3.53;;;8.70;99.70;;;;;;5038982;28;20475;-72
2021/04/30 10:59:45;;;;;;;4.67;2.40;;;8.70;99.70;;;;;;5038481;28;20444;-71
2021/04/30 11:02:19;;;;;;;9.77;4.77;;;8.60;99.70;;;;;;5038449;28;20449;-72
2021/04/30 11:05:11;;;;;;;7.80;4.43;;;8.50;99.70;;;;;;5039059;28;20472;-71
2021/04/30 11:07:39;;;;;;;5.10;3.30;;;8.30;99.70;;;;;;5032535;28;20962;-71
2021/04/30 11:10:34;;;;;;;10.27;4.70;;;8.40;99.70;;;;;;5038647;28;20444;-71
2021/04/30 11:13:10;;;;;;;7.43;4.13;;;8.30;99.70;;;;;;5037687;28;20548;-72
2021/04/30 11:15:55;;;;;;;6.40;3.20;;;8.30;99.70;;;;;;5038679;28;20480;-71
2021/04/30 11:18:23;;;;;;;7.37;4.33;;;8.30;99.70;;;;;;5037661;28;20483;-70
2021/04/30 11:21:04;;;;;;;8.70;4.30;;;8.10;99.70;;;;;;5038002;28;20445;-71
2021/04/30 11:23:38;;;;;;;6.07;3.00;;;8.00;99.70;;;;;;5017540;28;20551;-70
2021/04/30 11:26:07;;;;;;;5.60;3.53;;;8.00;99.70;;;;;;5026513;28;20507;-71
2021/04/30 11:29:09;;;;;;;5.50;3.30;;;7.90;99.70;;;;;;5037313;28;20558;-72
2021/04/30 11:31:37;;;;;;;8.47;4.27;;;7.70;99.70;;;;;;5037701;28;20440;-72
2021/04/30 11:34:21;;;;;;;7.07;3.63;;;7.70;99.70;;;;;;5036514;28;20465;-70
2021/04/30 11:36:55;;;;;;;5.90;4.10;;;7.50;99.70;;;;;;5021559;28;20485;-70
2021/04/30 11:39:24;;;;;;;8.20;4.23;;;7.50;99.70;;;;;;5073730;22;21011;-70
2021/04/30 11:41:52;;;;;;;6.30;3.20;;;7.30;99.70;;;;;;5089437;28;20438;-70
2021/04/30 11:44:19;;;;;;;7.07;3.63;;;7.50;99.70;;;;;;5089468;28;20445;-70
2021/04/30 11:46:56;;;;;;;4.37;3.03;;;7.50;99.70;;;;;;5089651;28;20847;-70
2021/04/30 11:49:22;;;;;;;5.97;2.83;;;7.60;99.70;;;;;;5074751;28;20465;-70
2021/04/30 11:51:49;;;;;;;6.87;3.77;;;7.60;99.70;;;;;;5069801;28;20443;-71
2021/04/30 11:54:19;;;;;;;5.30;3.13;;;7.60;99.70;;;;;;5069181;28;20439;-70
2021/04/30 11:56:46;;;;;;;9.07;3.73;;;7.60;99.70;;;;;;5069729;28;20478;-71
2021/04/30 11:59:20;;;;;;;9.07;3.80;;;7.60;99.70;;;;;;5069284;28;20489;-70
2021/04/30 12:01:57;;;;;;;9.60;3.17;;;7.50;99.70;;;;;;5069496;28;20455;-70
2021/04/30 12:04:40;;;;;;;6.00;2.63;;;7.70;99.70;;;;;;5069011;28;20457;-71
2021/04/30 12:07:09;;;;;;;9.63;3.40;;;7.60;99.70;;;;;;5068879;28;20946;-70
2021/04/30 12:09:35;;;;;;;6.53;3.13;;;7.50;99.70;;;;;;5069452;28;20471;-70
2021/04/30 12:12:17;;;;;;;8.50;2.80;;;7.50;99.70;;;;;;5073079;28;20451;-70
2021/04/30 12:14:49;;;;;;;6.33;3.43;;;7.60;99.70;;;;;;5072987;28;20879;-70
2021/04/30 12:17:37;;;;;;;4.23;2.73;;;7.50;99.70;;;;;;5073146;28;20941;-71
2021/04/30 12:20:23;;;;;;;11.47;4.40;;;7.40;99.70;;;;;;5066172;28;20476;-70
2021/04/30 12:22:55;;;;;;;8.10;3.47;;;7.50;99.70;;;;;;5052913;28;20474;-70
2021/04/30 12:25:27;;;;;;;7.30;4.17;;;7.50;99.70;;;;;;5053377;28;20439;-70
2021/04/30 12:27:55;;;;;;;7.23;3.90;;;7.30;99.70;;;;;;5072096;28;20458;-69
2021/04/30 12:30:30;;;;;;;6.20;2.83;;;7.20;99.70;;;;;;5070944;28;20438;-70
2021/04/30 12:32:57;;;;;;;7.37;3.47;;;7.10;99.70;;;;;;5067371;28;20450;-70
2021/04/30 12:35:24;;;;;;;5.00;3.13;;;7.20;99.70;;;;;;5066552;28;20489;-70
2021/04/30 12:37:51;;;;;;;7.03;3.23;;;7.10;99.70;;;;;;5061023;28;20478;-70
2021/04/30 12:40:24;;;;;;;4.40;4.00;;;7.10;99.70;;;;;;5071242;28;20450;-70
2021/04/30 12:42:51;;;;;;;5.70;3.67;;;7.20;99.70;;;;;;5071676;28;20445;-70
2021/04/30 12:45:20;;;;;;;6.20;3.53;;;7.20;99.70;;;;;;5072298;28;20812;-69
2021/04/30 12:47:50;;;;;;;7.67;3.60;;;7.10;99.70;;;;;;5073179;28;20496;-69
2021/04/30 12:50:17;;;;;;;5.57;2.70;;;7.10;99.70;;;;;;5071754;28;20953;-68
2021/04/30 12:52:47;;;;;;;6.13;3.10;;;7.10;99.70;;;;;;5068313;28;20447;-68
2021/04/30 12:55:32;;;;;;;7.23;3.47;;;7.00;99.70;;;;;;5067817;28;20482;-68
2021/04/30 12:58:07;;;;;;;4.60;2.80;;;7.10;99.70;;;;;;5066134;28;20454;-69
2021/04/30 13:00:52;;;;;;;7.50;3.10;;;7.30;99.70;;;;;;5070356;28;20529;-70
2021/04/30 13:03:19;;;;;;;4.10;2.90;;;7.00;99.70;;;;;;5071943;28;20450;-69